Time;durP1;ratioP1;P1;durP2;ratioP2;P2;SDS_P1;SDS_P2;PMS_P1;PMS_P2;Temp;Humidity;BMP_temperature;BMP_pressure;BME280_temperature;BME280_humidity;BME280_pressure;Samples;Min_cycle;Max_cycle;Signal;HPM_P1;HPM_P2
2022/12/05 00:01:27;;;;;;;42.63;14.05;;;1.10;99.90;;;;;;5099686;28;20035;-69
2022/12/05 00:03:57;;;;;;;38.03;14.43;;;1.10;99.90;;;;;;5082052;28;20032;-69
2022/12/05 00:06:25;;;;;;;35.47;14.55;;;1.10;99.90;;;;;;5099271;28;20039;-69
2022/12/05 00:08:53;;;;;;;39.17;14.30;;;1.10;99.90;;;;;;5099568;28;20022;-69
2022/12/05 00:11:23;;;;;;;34.80;14.02;;;1.10;99.90;;;;;;5099312;28;20020;-69
2022/12/05 00:13:52;;;;;;;28.70;12.95;;;1.10;99.90;;;;;;5081072;28;20024;-69
2022/12/05 00:16:22;;;;;;;36.25;14.60;;;1.10;99.90;;;;;;5099529;28;20025;-69
2022/12/05 00:18:49;;;;;;;32.40;13.57;;;1.10;99.90;;;;;;5081223;28;20035;-69
2022/12/05 00:21:25;;;;;;;38.13;13.90;;;1.10;99.90;;;;;;5098732;28;20024;-69
2022/12/05 00:23:55;;;;;;;37.25;15.52;;;1.10;99.90;;;;;;5099149;28;20035;-69
2022/12/05 00:26:22;;;;;;;34.13;13.40;;;1.10;99.90;;;;;;5099313;28;20024;-69
2022/12/05 00:28:50;;;;;;;41.38;15.98;;;1.10;99.90;;;;;;5099409;28;20396;-69
2022/12/05 00:31:23;;;;;;;36.40;14.80;;;1.10;99.90;;;;;;5098691;28;20355;-69
2022/12/05 00:33:52;;;;;;;37.10;12.73;;;1.10;99.90;;;;;;5099478;28;20360;-69
2022/12/05 00:36:25;;;;;;;31.00;13.32;;;1.10;99.90;;;;;;5098312;28;20028;-69
2022/12/05 00:38:53;;;;;;;31.08;13.77;;;1.10;99.90;;;;;;5097867;28;20450;-69
2022/12/05 00:41:23;;;;;;;36.38;13.95;;;1.10;99.90;;;;;;5098968;28;20036;-69
2022/12/05 00:43:51;;;;;;;32.03;13.00;;;1.10;99.90;;;;;;5080561;28;20078;-69
2022/12/05 00:46:22;;;;;;;39.05;13.85;;;1.10;99.90;;;;;;5098391;28;20016;-69
2022/12/05 00:48:49;;;;;;;38.08;13.68;;;1.10;99.90;;;;;;5080507;28;20028;-69
2022/12/05 00:51:20;;;;;;;33.90;13.32;;;1.10;99.90;;;;;;5098776;28;20362;-69
2022/12/05 00:53:49;;;;;;;38.92;13.98;;;1.10;99.90;;;;;;5098321;28;20321;-69
2022/12/05 00:56:19;;;;;;;33.97;12.73;;;1.10;99.90;;;;;;5098201;28;20412;-69
2022/12/05 00:58:47;;;;;;;43.35;14.73;;;1.10;99.90;;;;;;5098882;28;20061;-69
2022/12/05 01:01:18;;;;;;;27.88;12.48;;;1.10;99.90;;;;;;5098546;28;20028;-69
2022/12/05 01:03:45;;;;;;;35.75;14.80;;;1.10;99.90;;;;;;5097949;28;20036;-69
2022/12/05 01:06:14;;;;;;;35.40;13.30;;;1.10;99.90;;;;;;5098137;28;20400;-69
2022/12/05 01:08:42;;;;;;;37.65;15.75;;;1.10;99.90;;;;;;5098707;28;20020;-69
2022/12/05 01:11:11;;;;;;;34.20;13.13;;;1.20;99.90;;;;;;5097908;28;20028;-69
2022/12/05 01:13:38;;;;;;;35.58;13.48;;;1.10;99.90;;;;;;5080022;28;20052;-69
2022/12/05 01:16:05;;;;;;;40.35;14.63;;;1.10;99.90;;;;;;5097825;28;20024;-69
2022/12/05 01:18:33;;;;;;;30.35;13.13;;;1.10;99.90;;;;;;5097736;28;20476;-69
2022/12/05 01:21:04;;;;;;;27.33;11.32;;;1.20;99.90;;;;;;5097836;28;20316;-69
2022/12/05 01:23:31;;;;;;;42.28;15.32;;;1.20;99.90;;;;;;5079945;28;20023;-69
2022/12/05 01:25:58;;;;;;;33.13;13.02;;;1.20;99.90;;;;;;5098526;28;20051;-69
2022/12/05 01:28:25;;;;;;;32.17;13.10;;;1.20;99.90;;;;;;5098144;28;20031;-69
2022/12/05 01:30:53;;;;;;;33.83;13.00;;;1.20;99.90;;;;;;5079549;28;20436;-69
2022/12/05 01:33:20;;;;;;;37.33;14.52;;;1.20;99.90;;;;;;5097648;28;20028;-69
2022/12/05 01:35:48;;;;;;;32.42;11.95;;;1.20;99.90;;;;;;5097376;28;20016;-69
2022/12/05 01:38:15;;;;;;;38.38;14.40;;;1.20;99.90;;;;;;5097430;28;20066;-69
2022/12/05 01:40:43;;;;;;;34.97;13.65;;;1.20;99.90;;;;;;5079279;28;20032;-69
2022/12/05 01:43:18;;;;;;;37.17;13.68;;;1.20;99.90;;;;;;5079457;28;20028;-69
2022/12/05 01:45:46;;;;;;;37.97;14.40;;;1.20;99.90;;;;;;5097312;28;20471;-69
2022/12/05 01:48:32;;;;;;;34.83;13.20;;;1.20;99.90;;;;;;5097279;28;20024;-69
2022/12/05 01:51:01;;;;;;;42.20;14.18;;;1.20;99.90;;;;;;5097181;28;20027;-69
2022/12/05 01:53:29;;;;;;;30.85;13.15;;;1.20;99.90;;;;;;5097311;28;20028;-69
2022/12/05 01:55:57;;;;;;;36.63;13.48;;;1.20;99.90;;;;;;5097699;28;20031;-69
2022/12/05 01:58:32;;;;;;;35.50;13.98;;;1.20;99.90;;;;;;5097791;28;20069;-69
2022/12/05 02:01:00;;;;;;;33.90;14.45;;;1.20;99.90;;;;;;5097570;28;20028;-69
2022/12/05 02:03:27;;;;;;;35.97;13.48;;;1.20;99.90;;;;;;5075696;28;20049;-69
2022/12/05 02:05:58;;;;;;;33.95;12.63;;;1.20;99.90;;;;;;5076665;28;20016;-69
2022/12/05 02:08:27;;;;;;;31.63;12.73;;;1.20;99.90;;;;;;5075689;28;20320;-69
2022/12/05 02:10:56;;;;;;;37.88;13.23;;;1.20;99.90;;;;;;5076690;28;20016;-69
2022/12/05 02:13:24;;;;;;;36.38;14.27;;;1.20;99.90;;;;;;5077359;28;20028;-69
2022/12/05 02:16:08;;;;;;;37.00;13.23;;;1.20;99.90;;;;;;5075669;28;20036;-69
2022/12/05 02:18:51;;;;;;;33.05;13.95;;;1.20;99.90;;;;;;5075786;28;20162;-69
2022/12/05 02:21:49;;;;;;;37.75;15.10;;;1.20;99.90;;;;;;5076409;28;20028;-69
2022/12/05 02:24:51;;;;;;;37.30;13.07;;;1.30;99.90;;;;;;5075827;28;20023;-69
2022/12/05 02:27:37;;;;;;;31.73;12.43;;;1.20;99.90;;;;;;5063366;28;20032;-69
2022/12/05 02:30:24;;;;;;;36.37;13.10;;;1.20;99.90;;;;;;5077076;28;20025;-69
2022/12/05 02:33:07;;;;;;;38.92;14.18;;;1.20;99.90;;;;;;5076728;28;20267;-69
2022/12/05 02:35:55;;;;;;;34.38;13.40;;;1.30;99.90;;;;;;5075310;28;20024;-69
2022/12/05 02:38:41;;;;;;;34.33;14.50;;;1.30;99.90;;;;;;5076374;28;20016;-69
2022/12/05 02:41:13;;;;;;;34.85;14.00;;;1.20;99.90;;;;;;5076888;28;20020;-69
2022/12/05 02:43:53;;;;;;;29.52;12.20;;;1.30;99.90;;;;;;5077021;28;20078;-69
2022/12/05 02:46:23;;;;;;;34.83;13.95;;;1.30;99.90;;;;;;5076601;28;20309;-69
2022/12/05 02:48:59;;;;;;;36.03;13.43;;;1.20;99.90;;;;;;5076304;28;20020;-69
2022/12/05 02:51:33;;;;;;;35.50;12.60;;;1.20;99.90;;;;;;5075103;28;20075;-69
2022/12/05 02:54:05;;;;;;;34.30;13.07;;;1.30;99.90;;;;;;5077297;28;20021;-69
2022/12/05 02:56:34;;;;;;;31.95;12.73;;;1.20;99.90;;;;;;5076733;28;20020;-69
2022/12/05 02:59:02;;;;;;;32.65;13.05;;;1.20;99.90;;;;;;5077029;28;20348;-69
2022/12/05 03:01:31;;;;;;;30.48;12.80;;;1.20;99.90;;;;;;5076663;28;20036;-69
2022/12/05 03:04:03;;;;;;;34.60;14.00;;;1.30;99.90;;;;;;5078615;28;20565;-69
2022/12/05 03:06:38;;;;;;;30.42;12.35;;;1.20;99.90;;;;;;5078587;28;20312;-69
2022/12/05 03:09:30;;;;;;;32.00;13.73;;;1.30;99.90;;;;;;5096369;28;20020;-69
2022/12/05 03:12:10;;;;;;;34.10;14.00;;;1.30;99.90;;;;;;5088473;28;20056;-69
2022/12/05 03:15:08;;;;;;;27.85;12.63;;;1.30;99.90;;;;;;5096994;28;20056;-69
2022/12/05 03:17:53;;;;;;;35.70;14.05;;;1.30;99.90;;;;;;5097166;28;20161;-69
2022/12/05 03:20:34;;;;;;;32.95;12.65;;;1.30;99.90;;;;;;5096726;28;20020;-69
2022/12/05 03:23:22;;;;;;;30.33;13.73;;;1.30;99.90;;;;;;5078461;28;20431;-69
2022/12/05 03:26:32;;;;;;;35.97;14.32;;;1.30;99.90;;;;;;5096038;28;20103;-69
2022/12/05 03:29:18;;;;;;;35.50;12.95;;;1.30;99.90;;;;;;5096153;28;20043;-69
2022/12/05 03:31:55;;;;;;;34.53;14.40;;;1.30;99.90;;;;;;5096651;28;20103;-69
2022/12/05 03:34:41;;;;;;;32.78;12.88;;;1.30;99.90;;;;;;5096195;28;20099;-69
2022/12/05 03:37:30;;;;;;;36.97;13.75;;;1.30;99.90;;;;;;5100459;28;20028;-69
2022/12/05 03:40:11;;;;;;;32.42;12.45;;;1.30;99.90;;;;;;5098718;28;20420;-69
2022/12/05 03:42:48;;;;;;;30.00;12.98;;;1.30;99.90;;;;;;5099675;28;20048;-69
2022/12/05 03:45:24;;;;;;;29.83;12.75;;;1.30;99.90;;;;;;5081640;28;20027;-69
2022/12/05 03:48:32;;;;;;;35.28;13.40;;;1.30;99.90;;;;;;5099518;28;20070;-69
2022/12/05 03:51:03;;;;;;;33.80;13.57;;;1.30;99.90;;;;;;5081516;28;20024;-69
2022/12/05 03:54:06;;;;;;;35.20;13.73;;;1.30;99.90;;;;;;5099485;28;20063;-69
2022/12/05 03:56:45;;;;;;;30.67;13.02;;;1.30;99.90;;;;;;5094776;28;20375;-69
2022/12/05 03:59:41;;;;;;;33.60;13.18;;;1.30;99.90;;;;;;5081572;28;20082;-69
2022/12/05 04:02:33;;;;;;;32.25;12.48;;;1.30;99.90;;;;;;5099521;28;20048;-69
2022/12/05 04:05:09;;;;;;;31.75;11.85;;;1.30;99.90;;;;;;5099234;28;20016;-69
2022/12/05 04:07:39;;;;;;;31.13;12.55;;;1.30;99.90;;;;;;5098415;28;20016;-69
2022/12/05 04:10:14;;;;;;;29.85;13.30;;;1.30;99.90;;;;;;5081210;28;20074;-69
2022/12/05 04:12:44;;;;;;;37.70;14.13;;;1.40;99.90;;;;;;5099159;28;20016;-69
2022/12/05 04:15:26;;;;;;;31.63;13.38;;;1.40;99.90;;;;;;5099616;28;20085;-69
2022/12/05 04:17:59;;;;;;;37.95;14.40;;;1.40;99.90;;;;;;5094228;28;20021;-69
2022/12/05 04:23:25;;;;;;;31.25;14.55;;;1.40;99.90;;;;;;5099256;28;20039;-69
2022/12/05 04:26:15;;;;;;;32.33;15.18;;;1.40;99.90;;;;;;5098852;28;20042;-69
2022/12/05 04:28:51;;;;;;;31.30;14.02;;;1.40;99.90;;;;;;5099206;28;20097;-69
2022/12/05 04:31:43;;;;;;;33.65;13.45;;;1.40;99.90;;;;;;5080874;28;20027;-69
2022/12/05 04:34:14;;;;;;;33.00;14.43;;;1.40;99.90;;;;;;5099215;28;20058;-69
2022/12/05 04:36:56;;;;;;;27.17;12.68;;;1.40;99.90;;;;;;5080602;28;20432;-69
2022/12/05 04:39:58;;;;;;;32.72;14.25;;;1.40;99.90;;;;;;5099099;28;20032;-69
2022/12/05 04:42:28;;;;;;;26.02;12.02;;;1.40;99.90;;;;;;5080735;28;20073;-69
2022/12/05 04:45:06;;;;;;;30.90;15.48;;;1.40;99.90;;;;;;5098969;28;20462;-69
2022/12/05 04:47:44;;;;;;;26.60;12.02;;;1.40;99.90;;;;;;5079578;28;20031;-69
2022/12/05 04:50:14;;;;;;;26.25;12.90;;;1.40;99.90;;;;;;5080304;28;20413;-69
2022/12/05 04:52:45;;;;;;;27.23;12.98;;;1.40;99.90;;;;;;5098470;28;20069;-69
2022/12/05 04:55:18;;;;;;;27.48;11.48;;;1.40;99.90;;;;;;5098789;28;20036;-69
2022/12/05 04:57:53;;;;;;;27.45;12.10;;;1.40;99.90;;;;;;5080201;28;20024;-69
2022/12/05 05:00:21;;;;;;;30.40;12.27;;;1.40;99.90;;;;;;5098623;28;20024;-69
2022/12/05 05:03:10;;;;;;;32.38;13.05;;;1.40;99.90;;;;;;5097988;28;20044;-69
2022/12/05 05:05:38;;;;;;;30.83;13.60;;;1.40;99.90;;;;;;5098270;28;20020;-69
2022/12/05 05:08:16;;;;;;;23.77;11.73;;;1.40;99.90;;;;;;5080059;28;20439;-69
2022/12/05 05:11:07;;;;;;;28.00;11.70;;;1.40;99.90;;;;;;5098187;28;20028;-69
2022/12/05 05:13:34;;;;;;;30.25;13.45;;;1.40;99.90;;;;;;5098414;28;20162;-69
2022/12/05 05:16:02;;;;;;;33.85;12.55;;;1.40;99.90;;;;;;5097102;28;20040;-69
2022/12/05 05:18:29;;;;;;;29.88;13.10;;;1.40;99.90;;;;;;5098437;28;20028;-69
2022/12/05 05:20:57;;;;;;;28.77;12.82;;;1.40;99.90;;;;;;5097645;28;20039;-69
2022/12/05 05:23:24;;;;;;;25.75;12.07;;;1.40;99.90;;;;;;5097400;28;20028;-69
2022/12/05 05:25:53;;;;;;;28.15;12.43;;;1.40;99.90;;;;;;5097994;28;20082;-69
2022/12/05 05:28:21;;;;;;;25.85;12.48;;;1.40;99.90;;;;;;5097663;28;20315;-69
2022/12/05 05:30:49;;;;;;;26.65;10.80;;;1.50;99.90;;;;;;5098131;28;20082;-69
2022/12/05 05:33:16;;;;;;;26.80;13.68;;;1.40;99.90;;;;;;5098272;28;20382;-69
2022/12/05 05:35:44;;;;;;;26.13;11.68;;;1.50;99.90;;;;;;5098269;28;20349;-69
2022/12/05 05:38:11;;;;;;;27.50;12.07;;;1.40;99.90;;;;;;5098047;28;20078;-69
2022/12/05 05:40:38;;;;;;;25.85;11.18;;;1.40;99.90;;;;;;5098016;28;20028;-69
2022/12/05 05:43:06;;;;;;;23.75;10.30;;;1.40;99.90;;;;;;5079528;28;20027;-69
2022/12/05 05:45:35;;;;;;;25.70;11.05;;;1.40;99.90;;;;;;5096003;28;20059;-69
2022/12/05 05:48:03;;;;;;;29.95;11.77;;;1.40;99.90;;;;;;5078681;28;20050;-69
2022/12/05 05:50:31;;;;;;;22.17;10.48;;;1.40;99.90;;;;;;5097144;28;20408;-69
2022/12/05 05:52:58;;;;;;;20.33;9.60;;;1.40;99.90;;;;;;5097903;28;20119;-69
2022/12/05 05:55:27;;;;;;;20.23;9.77;;;1.40;99.90;;;;;;5097192;28;20099;-69
2022/12/05 05:57:54;;;;;;;23.48;10.65;;;1.40;99.90;;;;;;5079045;28;20020;-69
2022/12/05 06:00:22;;;;;;;20.58;10.38;;;1.40;99.90;;;;;;5097625;28;20023;-69
2022/12/05 06:02:51;;;;;;;21.98;9.57;;;1.40;99.90;;;;;;5097172;28;20475;-69
2022/12/05 06:05:19;;;;;;;19.42;9.73;;;1.40;99.90;;;;;;5097139;28;20051;-69
2022/12/05 06:07:46;;;;;;;22.17;9.52;;;1.30;99.90;;;;;;5097026;28;20020;-69
2022/12/05 06:10:14;;;;;;;19.60;9.52;;;1.20;99.90;;;;;;5097489;28;20321;-69
2022/12/05 06:12:41;;;;;;;18.92;9.60;;;1.20;99.90;;;;;;5079202;28;20107;-69
2022/12/05 06:15:09;;;;;;;18.50;8.93;;;1.20;99.90;;;;;;5096873;28;20023;-69
2022/12/05 06:17:37;;;;;;;22.10;9.40;;;1.10;99.90;;;;;;5096841;28;20024;-69
2022/12/05 06:20:07;;;;;;;20.63;9.70;;;1.10;99.90;;;;;;5078783;28;20047;-69
2022/12/05 06:22:34;;;;;;;17.77;10.68;;;1.00;99.90;;;;;;5096824;28;20047;-69
2022/12/05 06:25:02;;;;;;;21.73;10.48;;;0.90;99.90;;;;;;5078724;28;20106;-73
2022/12/05 06:27:31;;;;;;;21.92;9.68;;;0.90;99.90;;;;;;5078723;28;20531;-71
2022/12/05 06:29:58;;;;;;;19.60;9.07;;;0.90;99.90;;;;;;5096746;28;20024;-70
2022/12/05 06:32:28;;;;;;;19.67;8.90;;;0.90;99.90;;;;;;5078629;28;20028;-70
2022/12/05 06:34:55;;;;;;;19.00;9.15;;;0.90;99.90;;;;;;5096407;28;20482;-70
2022/12/05 06:37:23;;;;;;;20.00;10.35;;;0.80;99.90;;;;;;5078488;28;20028;-71
2022/12/05 06:39:51;;;;;;;18.95;10.20;;;0.80;99.90;;;;;;5078479;28;20067;-71
2022/12/05 06:42:21;;;;;;;20.92;10.30;;;0.80;99.90;;;;;;5096646;28;20024;-71
2022/12/05 06:44:48;;;;;;;19.45;9.18;;;0.80;99.90;;;;;;5097645;28;20055;-69
2022/12/05 06:47:16;;;;;;;17.05;8.77;;;0.80;99.90;;;;;;5097174;28;20316;-68
2022/12/05 06:49:43;;;;;;;20.08;10.30;;;0.80;99.90;;;;;;5096444;28;20023;-69
2022/12/05 06:52:14;;;;;;;24.10;12.05;;;0.70;99.90;;;;;;5097060;28;20024;-69
2022/12/05 06:54:41;;;;;;;26.55;11.80;;;0.70;99.90;;;;;;5077684;28;20080;-69
2022/12/05 06:57:09;;;;;;;23.08;10.23;;;0.70;99.90;;;;;;5096724;28;20114;-71
2022/12/05 06:59:36;;;;;;;21.05;10.68;;;0.70;99.90;;;;;;5096723;28;20024;-70
2022/12/05 07:02:09;;;;;;;20.25;9.30;;;0.70;99.90;;;;;;5095965;28;20052;-76
2022/12/05 07:04:37;;;;;;;16.52;8.15;;;0.70;99.90;;;;;;5096946;28;20035;-72
2022/12/05 07:07:05;;;;;;;13.77;7.57;;;0.70;99.90;;;;;;5096352;28;20046;-73
2022/12/05 07:09:47;;;;;;;15.55;8.25;;;0.70;99.90;;;;;;5078371;28;20016;-72
2022/12/05 07:12:18;;;;;;;18.73;8.48;;;0.70;99.90;;;;;;5100283;28;20052;-73
2022/12/05 07:14:47;;;;;;;19.52;9.98;;;0.70;99.90;;;;;;5082235;28;20087;-72
2022/12/05 07:17:14;;;;;;;19.58;8.63;;;0.70;99.90;;;;;;5082144;28;20081;-73
2022/12/05 07:19:41;;;;;;;20.05;9.07;;;0.70;99.90;;;;;;5100343;28;20319;-73
2022/12/05 07:22:09;;;;;;;16.75;8.77;;;0.70;99.90;;;;;;5082236;28;20024;-73
2022/12/05 07:24:37;;;;;;;17.65;8.10;;;0.70;99.90;;;;;;5100462;28;20026;-74
2022/12/05 07:27:05;;;;;;;14.68;8.82;;;0.70;99.90;;;;;;5100001;28;20016;-73
2022/12/05 07:29:32;;;;;;;14.70;7.72;;;0.70;99.90;;;;;;5082254;28;20020;-73
2022/12/05 07:32:01;;;;;;;17.27;8.85;;;0.70;99.90;;;;;;5099915;28;20034;-74
2022/12/05 07:34:30;;;;;;;16.02;8.77;;;0.70;99.90;;;;;;5100080;28;20024;-70
2022/12/05 07:36:58;;;;;;;16.17;8.85;;;0.70;99.90;;;;;;5081732;28;20035;-70
2022/12/05 07:39:26;;;;;;;19.92;9.73;;;0.70;99.90;;;;;;5099803;28;20097;-73
2022/12/05 07:41:53;;;;;;;22.40;10.30;;;0.70;99.90;;;;;;5081709;28;20313;-72
2022/12/05 07:44:21;;;;;;;21.92;10.73;;;0.70;99.90;;;;;;5100370;28;20020;-72
2022/12/05 07:46:48;;;;;;;21.38;10.75;;;0.70;99.90;;;;;;5099640;28;20073;-71
2022/12/05 07:49:16;;;;;;;19.20;10.60;;;0.70;99.90;;;;;;5081562;28;20320;-71
2022/12/05 07:51:43;;;;;;;17.20;9.18;;;0.70;99.90;;;;;;5100001;28;20027;-71
2022/12/05 07:54:10;;;;;;;21.65;10.00;;;0.70;99.90;;;;;;5099481;28;20028;-71
2022/12/05 07:56:38;;;;;;;20.10;10.05;;;0.70;99.90;;;;;;5099740;28;20024;-71
2022/12/05 07:59:06;;;;;;;16.85;9.98;;;0.70;99.90;;;;;;5100139;28;20027;-71
2022/12/05 08:01:33;;;;;;;14.73;8.45;;;0.70;99.90;;;;;;5081318;28;20028;-71
2022/12/05 08:04:00;;;;;;;16.42;8.25;;;0.70;99.90;;;;;;5099157;28;20097;-71
2022/12/05 08:06:29;;;;;;;15.10;8.15;;;0.70;99.90;;;;;;5099276;28;20032;-71
2022/12/05 08:08:57;;;;;;;13.77;6.85;;;0.70;99.90;;;;;;5081387;28;20293;-71
2022/12/05 08:11:28;;;;;;;13.77;6.80;;;0.70;99.90;;;;;;5100003;28;20304;-71
2022/12/05 08:13:57;;;;;;;12.23;6.80;;;0.70;99.90;;;;;;5081206;28;20028;-71
2022/12/05 08:16:27;;;;;;;13.98;7.40;;;0.70;99.90;;;;;;5099617;28;20069;-71
2022/12/05 08:18:59;;;;;;;12.68;6.82;;;0.70;99.90;;;;;;5099747;28;20024;-71
2022/12/05 08:21:27;;;;;;;11.50;6.75;;;0.70;99.90;;;;;;5098111;28;20020;-71
2022/12/05 08:23:56;;;;;;;13.82;7.18;;;0.70;99.90;;;;;;5098981;28;20051;-71
2022/12/05 08:26:29;;;;;;;13.60;7.22;;;0.70;99.90;;;;;;5098904;28;20316;-71
2022/12/05 08:29:01;;;;;;;15.68;7.55;;;0.70;99.90;;;;;;5099590;28;20332;-71
2022/12/05 08:31:32;;;;;;;11.38;6.80;;;0.70;99.90;;;;;;5099068;28;20020;-71
2022/12/05 08:34:01;;;;;;;11.38;6.53;;;0.70;99.90;;;;;;5098732;28;20419;-71
2022/12/05 08:36:29;;;;;;;15.35;7.07;;;0.70;99.90;;;;;;5098654;28;20451;-71
2022/12/05 08:39:02;;;;;;;14.13;7.53;;;0.70;99.90;;;;;;5099369;28;20043;-71
2022/12/05 08:41:30;;;;;;;11.95;6.53;;;0.80;99.90;;;;;;5098776;28;20027;-71
2022/12/05 08:44:00;;;;;;;13.57;7.75;;;0.80;99.90;;;;;;5099128;28;20016;-71
2022/12/05 08:46:28;;;;;;;13.13;7.30;;;0.80;99.90;;;;;;5098498;28;20027;-71
2022/12/05 08:48:55;;;;;;;14.73;7.10;;;0.80;99.90;;;;;;5098646;28;20320;-71
2022/12/05 08:51:23;;;;;;;10.80;6.28;;;0.80;99.90;;;;;;5080392;28;20020;-70
2022/12/05 08:53:50;;;;;;;13.10;7.20;;;0.80;99.90;;;;;;5080421;28;20028;-71
2022/12/05 08:56:17;;;;;;;10.55;6.60;;;0.90;99.90;;;;;;5080361;28;20052;-71
2022/12/05 08:58:45;;;;;;;11.48;6.72;;;0.80;99.90;;;;;;5080683;28;20020;-70
2022/12/05 09:01:15;;;;;;;10.38;5.93;;;0.80;99.90;;;;;;5098159;28;20432;-71
2022/12/05 09:03:43;;;;;;;13.98;6.97;;;0.90;99.90;;;;;;5098089;28;20040;-71
2022/12/05 09:06:17;;;;;;;14.93;7.40;;;0.90;99.90;;;;;;5079786;28;20031;-71
2022/12/05 09:08:44;;;;;;;14.10;7.65;;;0.90;99.90;;;;;;5098066;28;20016;-71
2022/12/05 09:11:14;;;;;;;14.82;7.10;;;0.90;99.90;;;;;;5080061;28;20111;-71
2022/12/05 09:13:42;;;;;;;16.33;7.93;;;0.90;99.90;;;;;;5098554;28;20489;-71
2022/12/05 09:16:12;;;;;;;15.73;6.85;;;0.90;99.90;;;;;;5097899;28;20032;-71
2022/12/05 09:18:40;;;;;;;12.50;7.13;;;0.90;99.90;;;;;;5097907;28;20111;-71
2022/12/05 09:21:13;;;;;;;18.73;7.35;;;1.00;99.90;;;;;;5079667;28;20021;-71
2022/12/05 09:23:42;;;;;;;19.88;11.00;;;1.00;99.90;;;;;;5098482;28;20308;-71
2022/12/05 09:26:12;;;;;;;30.38;14.20;;;1.00;99.90;;;;;;5097709;28;20028;-71
2022/12/05 09:28:40;;;;;;;30.02;14.80;;;1.00;99.90;;;;;;5097722;28;20412;-71
2022/12/05 09:31:16;;;;;;;28.83;14.32;;;0.90;99.90;;;;;;5097635;28;20020;-71
2022/12/05 09:33:44;;;;;;;20.70;10.83;;;1.00;99.90;;;;;;5091846;28;20031;-71
2022/12/05 09:36:19;;;;;;;19.27;9.20;;;0.90;99.90;;;;;;5079452;28;20266;-71
2022/12/05 09:38:47;;;;;;;12.95;7.78;;;1.00;99.90;;;;;;5098062;28;20404;-71
2022/12/05 09:42:03;;;;;;;13.30;6.90;;;0.90;99.90;;;;;;5097914;28;20032;-71
2022/12/05 09:44:39;;;;;;;11.30;6.40;;;0.90;99.90;;;;;;5097191;28;20035;-71
2022/12/05 09:47:23;;;;;;;12.05;6.40;;;0.90;99.90;;;;;;5097910;28;20016;-71
2022/12/05 09:50:00;;;;;;;13.05;7.28;;;0.90;99.90;;;;;;5079209;28;20027;-71
2022/12/05 09:52:36;;;;;;;13.48;7.90;;;0.90;99.90;;;;;;5079484;28;20035;-71
2022/12/05 09:55:13;;;;;;;13.87;7.10;;;1.00;99.90;;;;;;5096059;28;20059;-71
2022/12/05 09:57:49;;;;;;;14.40;7.63;;;0.90;99.90;;;;;;5097125;28;20421;-71
2022/12/05 10:00:17;;;;;;;25.35;14.07;;;1.00;99.90;;;;;;5097670;28;20032;-71
2022/12/05 10:03:37;;;;;;;36.15;20.55;;;1.00;99.90;;;;;;5097238;28;20047;-71
2022/12/05 10:06:21;;;;;;;37.92;20.95;;;1.00;99.90;;;;;;5062748;28;20360;-71
2022/12/05 10:09:11;;;;;;;24.42;15.77;;;1.00;99.90;;;;;;5079091;28;20032;-71
2022/12/05 10:11:58;;;;;;;12.25;7.72;;;1.00;99.90;;;;;;5097246;28;20030;-71
2022/12/05 10:14:43;;;;;;;11.05;6.70;;;1.00;99.90;;;;;;5097367;28;20020;-71
2022/12/05 10:17:52;;;;;;;12.55;5.63;;;1.00;99.90;;;;;;5097420;28;20024;-71
2022/12/05 10:20:28;;;;;;;9.63;6.35;;;1.10;99.90;;;;;;5048376;28;20040;-71
2022/12/05 10:23:22;;;;;;;11.25;6.88;;;1.10;99.90;;;;;;5096824;28;20026;-71
2022/12/05 10:25:58;;;;;;;11.63;6.07;;;1.20;99.90;;;;;;5078853;28;20031;-71
2022/12/05 10:29:00;;;;;;;11.57;7.30;;;1.20;99.90;;;;;;5078896;28;20023;-71
2022/12/05 10:31:35;;;;;;;19.95;10.20;;;1.20;99.90;;;;;;5012579;28;20129;-72
2022/12/05 10:34:30;;;;;;;18.95;10.38;;;1.30;99.90;;;;;;5078800;28;20431;-71
2022/12/05 10:37:16;;;;;;;21.27;11.65;;;1.30;99.90;;;;;;5097080;28;20070;-71
2022/12/05 10:39:48;;;;;;;19.63;11.65;;;1.40;99.90;;;;;;5096616;28;20020;-71
2022/12/05 10:42:31;;;;;;;14.63;8.02;;;1.40;99.90;;;;;;5097264;28;20440;-71
2022/12/05 10:45:14;;;;;;;13.05;7.13;;;1.50;99.90;;;;;;5078826;28;20056;-71
2022/12/05 10:47:42;;;;;;;8.80;6.03;;;1.50;99.90;;;;;;5093794;28;20031;-71
2022/12/05 10:50:33;;;;;;;9.02;4.60;;;1.60;99.90;;;;;;5101108;28;20020;-71
2022/12/05 10:53:03;;;;;;;6.80;4.25;;;1.60;99.90;;;;;;5100873;28;20020;-71
2022/12/05 10:55:41;;;;;;;7.05;4.40;;;1.60;99.90;;;;;;5082673;28;20118;-71
2022/12/05 10:58:27;;;;;;;8.93;4.60;;;1.70;99.90;;;;;;5100611;28;20035;-71
2022/12/05 11:01:23;;;;;;;6.10;3.92;;;1.70;99.90;;;;;;5100515;28;20052;-71
2022/12/05 11:04:05;;;;;;;7.97;4.47;;;1.70;99.90;;;;;;5100580;28;20048;-71
2022/12/05 11:06:35;;;;;;;9.52;5.10;;;1.80;99.90;;;;;;5101530;28;20359;-71
2022/12/05 11:09:24;;;;;;;8.90;4.95;;;1.80;99.90;;;;;;5082399;28;20078;-71
2022/12/05 11:12:06;;;;;;;7.75;5.18;;;1.80;99.90;;;;;;5082471;28;20028;-71
2022/12/05 11:14:35;;;;;;;10.35;6.55;;;1.80;99.90;;;;;;5097249;28;20055;-71
2022/12/05 11:17:04;;;;;;;9.68;5.65;;;1.80;99.90;;;;;;5100282;28;20030;-71
2022/12/05 11:19:34;;;;;;;8.48;5.43;;;1.90;99.90;;;;;;5082164;28;20024;-71
2022/12/05 11:22:03;;;;;;;7.82;4.82;;;1.90;99.90;;;;;;5082093;28;20055;-71
2022/12/05 11:24:40;;;;;;;6.95;4.72;;;1.90;99.90;;;;;;5100112;28;20023;-71
2022/12/05 11:27:16;;;;;;;9.15;4.60;;;1.90;99.90;;;;;;5081360;28;20020;-71
2022/12/05 11:29:54;;;;;;;9.07;5.78;;;2.00;99.90;;;;;;5100532;28;20020;-71
2022/12/05 11:32:26;;;;;;;8.93;5.53;;;2.10;99.90;;;;;;5100572;28;20019;-71
2022/12/05 11:35:11;;;;;;;6.00;4.20;;;2.10;99.90;;;;;;5100395;28;20031;-71
2022/12/05 11:37:53;;;;;;;7.53;4.35;;;2.20;99.90;;;;;;5081879;28;20031;-71
2022/12/05 11:40:34;;;;;;;7.53;4.20;;;2.30;99.90;;;;;;5100328;28;20103;-71
2022/12/05 11:43:23;;;;;;;7.47;4.22;;;2.30;99.90;;;;;;5100587;28;20316;-71
2022/12/05 11:46:27;;;;;;;7.70;5.00;;;2.30;99.90;;;;;;5100276;28;20047;-71
2022/12/05 11:49:22;;;;;;;12.50;8.90;;;2.40;99.90;;;;;;5099803;28;20023;-71
2022/12/05 11:52:19;;;;;;;11.63;6.97;;;2.40;99.90;;;;;;5099601;28;20028;-71
2022/12/05 11:55:01;;;;;;;11.15;6.63;;;2.40;99.90;;;;;;5099435;28;20106;-70
2022/12/05 11:58:02;;;;;;;8.65;6.00;;;2.30;99.90;;;;;;5099285;28;20115;-71
2022/12/05 12:00:49;;;;;;;9.88;6.97;;;2.30;99.90;;;;;;5081324;28;20028;-70
2022/12/05 12:03:29;;;;;;;10.27;5.65;;;2.30;99.90;;;;;;5099413;28;20549;-70
2022/12/05 12:06:25;;;;;;;7.53;5.00;;;2.20;99.90;;;;;;5098455;28;20115;-71
2022/12/05 12:09:23;;;;;;;10.00;5.18;;;2.20;99.90;;;;;;5099350;28;20025;-71
2022/12/05 12:12:19;;;;;;;7.68;4.68;;;2.20;99.90;;;;;;5081220;28;20038;-73
2022/12/05 12:15:10;;;;;;;7.88;4.80;;;2.20;99.90;;;;;;5099149;28;20016;-70
2022/12/05 12:17:44;;;;;;;9.70;5.07;;;2.30;99.90;;;;;;5081311;28;20024;-71
2022/12/05 12:20:48;;;;;;;7.35;4.60;;;2.30;99.90;;;;;;5099394;28;20028;-71
2022/12/05 12:23:58;;;;;;;7.22;4.80;;;2.40;99.90;;;;;;5099532;28;20447;-72
2022/12/05 12:26:39;;;;;;;7.05;4.07;;;2.40;99.90;;;;;;5080290;28;20035;-72
2022/12/05 12:29:22;;;;;;;8.55;4.85;;;2.40;99.90;;;;;;5097641;28;20028;-72
2022/12/05 12:32:16;;;;;;;9.50;5.40;;;2.50;99.90;;;;;;5098796;28;20036;-72
2022/12/05 12:35:26;;;;;;;20.85;12.20;;;2.50;99.90;;;;;;5099514;28;20369;-72
2022/12/05 12:38:30;;;;;;;12.32;8.07;;;2.40;99.90;;;;;;5081520;28;20308;-73
2022/12/05 12:41:17;;;;;;;14.30;7.60;;;2.40;99.90;;;;;;5100292;28;20020;-73
2022/12/05 12:43:54;;;;;;;;;;;2.40;99.90;;;;;;5102345;28;20032;-74
2022/12/05 12:46:42;;;;;;;11.38;6.57;;;2.40;99.90;;;;;;5102851;28;19961;-72
2022/12/05 12:49:34;;;;;;;9.93;6.43;;;2.40;99.90;;;;;;5049587;28;20036;-73
2022/12/05 12:52:19;;;;;;;9.05;5.85;;;2.40;99.90;;;;;;5080928;28;20111;-73
2022/12/05 12:55:12;;;;;;;10.85;6.40;;;2.40;99.90;;;;;;5097415;28;20024;-71
2022/12/05 12:57:42;;;;;;;12.18;5.85;;;2.40;99.90;;;;;;5098745;28;20028;-74
2022/12/05 13:00:19;;;;;;;9.60;5.30;;;2.40;99.90;;;;;;5098507;28;20039;-72
2022/12/05 13:03:17;;;;;;;10.20;6.05;;;2.40;99.90;;;;;;5098350;28;20052;-72
2022/12/05 13:06:14;;;;;;;8.80;6.05;;;2.40;99.90;;;;;;5098355;28;20031;-71
2022/12/05 13:08:53;;;;;;;9.75;6.05;;;2.40;99.90;;;;;;5098173;28;20031;-71
2022/12/05 13:11:22;;;;;;;8.50;5.07;;;2.40;99.90;;;;;;5097531;28;20335;-71
2022/12/05 13:14:00;;;;;;;9.10;5.50;;;2.40;99.90;;;;;;5098217;28;20031;-73
2022/12/05 13:16:39;;;;;;;7.07;4.43;;;2.40;99.90;;;;;;5079985;28;20032;-72
2022/12/05 13:19:15;;;;;;;8.48;4.72;;;2.50;99.90;;;;;;5097330;28;20028;-72
2022/12/05 13:21:42;;;;;;;9.88;5.68;;;2.40;99.90;;;;;;5079207;28;20328;-72
2022/12/05 13:24:13;;;;;;;10.45;6.68;;;2.50;99.90;;;;;;5097771;28;20020;-72
2022/12/05 13:26:49;;;;;;;16.80;8.75;;;2.50;99.90;;;;;;5098012;28;20028;-72
2022/12/05 13:29:32;;;;;;;16.95;10.40;;;2.50;99.90;;;;;;5098300;28;20013;-72